Time;durP1;ratioP1;P1;durP2;ratioP2;P2;SDS_P1;SDS_P2;PMS_P1;PMS_P2;Temp;Humidity;BMP_temperature;BMP_pressure;BME280_temperature;BME280_humidity;BME280_pressure;Samples;Min_cycle;Max_cycle;Signal;HPM_P1;HPM_P2
2021/05/08 00:02:17;;;;;;;4.63;4.13;;;3.50;75.70;;;;;;5052356;28;20027;-73
2021/05/08 00:04:42;;;;;;;5.68;4.22;;;3.50;75.80;;;;;;5051097;28;20546;-71
2021/05/08 00:07:08;;;;;;;6.63;4.55;;;3.50;76.00;;;;;;5033793;28;20056;-71
2021/05/08 00:09:34;;;;;;;5.72;4.82;;;3.50;75.90;;;;;;5052096;28;20079;-71
2021/05/08 00:11:59;;;;;;;4.97;4.18;;;3.50;76.00;;;;;;5031592;28;20021;-71
2021/05/08 00:14:26;;;;;;;7.72;4.20;;;3.50;76.10;;;;;;5032977;28;20485;-71
2021/05/08 00:16:53;;;;;;;5.97;4.78;;;3.40;76.20;;;;;;5051537;28;20017;-71
2021/05/08 00:19:18;;;;;;;7.03;4.75;;;3.50;76.20;;;;;;5051627;28;20025;-71
2021/05/08 00:21:44;;;;;;;7.32;5.07;;;3.40;76.20;;;;;;5052026;28;20102;-71
2021/05/08 00:24:10;;;;;;;6.18;4.80;;;3.40;76.20;;;;;;5032274;28;20029;-73
2021/05/08 00:26:35;;;;;;;6.35;4.75;;;3.40;76.20;;;;;;5051937;28;20052;-70
2021/05/08 00:29:01;;;;;;;6.32;5.00;;;3.40;76.30;;;;;;5051090;28;20024;-70
2021/05/08 00:31:27;;;;;;;6.55;4.65;;;3.40;76.40;;;;;;5051478;28;20109;-70
2021/05/08 00:33:53;;;;;;;14.20;5.50;;;3.30;76.30;;;;;;5049684;28;20032;-70
2021/05/08 00:36:18;;;;;;;5.93;4.95;;;3.30;76.40;;;;;;5051461;28;20115;-71
2021/05/08 00:38:44;;;;;;;5.88;4.70;;;3.20;76.50;;;;;;5032618;28;20120;-72
2021/05/08 00:41:10;;;;;;;9.50;4.80;;;3.20;76.60;;;;;;5040543;28;20033;-71
2021/05/08 00:43:35;;;;;;;7.22;4.43;;;3.20;76.70;;;;;;5049723;28;21152;-72
2021/05/08 00:46:01;;;;;;;5.13;4.63;;;3.20;76.60;;;;;;5050288;28;20021;-71
2021/05/08 00:48:28;;;;;;;5.47;4.28;;;3.20;76.70;;;;;;5050545;28;20063;-74
2021/05/08 00:50:55;;;;;;;5.22;4.60;;;3.20;76.80;;;;;;5032591;28;20029;-71
2021/05/08 00:53:21;;;;;;;6.53;4.63;;;3.20;77.00;;;;;;5051437;28;20497;-73
2021/05/08 00:55:46;;;;;;;5.20;4.57;;;3.20;76.90;;;;;;5050252;28;20032;-70
2021/05/08 00:58:12;;;;;;;6.90;4.63;;;3.20;76.90;;;;;;5033073;28;20045;-70
2021/05/08 01:00:38;;;;;;;4.70;4.15;;;3.10;76.80;;;;;;5050761;28;20024;-70
2021/05/08 01:03:05;;;;;;;6.05;4.55;;;3.10;77.00;;;;;;5050230;28;20108;-71
2021/05/08 01:05:34;;;;;;;5.10;4.32;;;3.10;77.00;;;;;;5043974;28;20040;-71
2021/05/08 01:08:05;;;;;;;6.20;4.60;;;3.10;77.00;;;;;;5050335;28;20420;-70
2021/05/08 01:10:31;;;;;;;5.10;4.50;;;3.00;77.10;;;;;;5049842;28;20025;-73
2021/05/08 01:12:58;;;;;;;6.50;5.10;;;3.00;77.30;;;;;;5045551;28;20072;-71
2021/05/08 01:15:25;;;;;;;4.90;4.38;;;2.90;77.20;;;;;;5053729;28;20029;-70
2021/05/08 01:17:51;;;;;;;6.38;4.55;;;2.90;77.30;;;;;;5050447;28;20059;-70
2021/05/08 01:20:17;;;;;;;4.78;4.28;;;2.80;77.20;;;;;;5049268;28;20021;-70
2021/05/08 01:22:44;;;;;;;6.35;4.82;;;2.90;77.40;;;;;;5032932;28;20025;-70
2021/05/08 01:25:15;;;;;;;4.82;4.30;;;2.80;77.20;;;;;;5049771;28;20445;-70
2021/05/08 01:28:06;;;;;;;6.00;5.00;;;2.80;77.30;;;;;;5032352;28;20396;-70
2021/05/08 01:30:35;;;;;;;6.05;5.15;;;2.80;77.30;;;;;;5019236;28;20326;-71
2021/05/08 01:33:01;;;;;;;6.45;5.28;;;2.70;77.20;;;;;;5032772;28;20480;-70
2021/05/08 01:35:28;;;;;;;6.93;5.22;;;2.60;77.20;;;;;;5031521;28;20025;-70
2021/05/08 01:37:54;;;;;;;7.20;6.10;;;2.60;77.20;;;;;;5048702;28;20052;-72
2021/05/08 01:40:36;;;;;;;8.63;5.13;;;2.60;77.40;;;;;;5032510;28;20477;-71
2021/05/08 01:43:02;;;;;;;7.30;5.53;;;2.50;77.50;;;;;;5049625;28;20033;-72
2021/05/08 01:45:28;;;;;;;5.72;5.15;;;2.50;77.50;;;;;;5031123;28;20039;-70
2021/05/08 01:47:54;;;;;;;6.78;5.35;;;2.50;77.50;;;;;;5050229;28;20082;-71
2021/05/08 01:50:22;;;;;;;7.68;5.68;;;2.50;77.70;;;;;;5032001;28;20025;-71
2021/05/08 01:52:48;;;;;;;6.50;5.28;;;2.50;77.80;;;;;;5049532;28;20020;-71
2021/05/08 01:55:17;;;;;;;6.18;5.53;;;2.40;77.90;;;;;;5049032;28;20027;-71
2021/05/08 01:57:54;;;;;;;7.65;5.70;;;2.40;78.00;;;;;;5032044;28;20122;-70
2021/05/08 02:00:25;;;;;;;6.47;5.65;;;2.40;78.10;;;;;;5049345;28;20104;-70
2021/05/08 02:02:53;;;;;;;8.13;5.35;;;2.40;78.20;;;;;;5049433;28;20052;-72
2021/05/08 02:05:19;;;;;;;9.32;5.95;;;2.40;78.70;;;;;;5048259;28;20473;-71
2021/05/08 02:07:45;;;;;;;5.85;5.25;;;2.40;78.30;;;;;;5049671;28;20113;-71
2021/05/08 02:10:12;;;;;;;8.20;5.78;;;2.40;78.30;;;;;;5050166;28;20068;-71
2021/05/08 02:12:38;;;;;;;7.10;5.15;;;2.40;78.20;;;;;;5043756;28;20519;-71
2021/05/08 02:15:16;;;;;;;5.72;5.13;;;2.40;78.30;;;;;;5044235;28;20112;-70
2021/05/08 02:17:42;;;;;;;5.75;4.90;;;2.30;78.40;;;;;;5032343;28;20055;-71
2021/05/08 02:20:13;;;;;;;6.60;4.72;;;2.30;78.40;;;;;;5035413;28;20025;-70
2021/05/08 02:22:40;;;;;;;5.45;4.85;;;2.30;78.50;;;;;;5049881;28;20032;-71
2021/05/08 02:25:07;;;;;;;5.15;4.60;;;2.30;78.50;;;;;;5048854;28;20032;-72
2021/05/08 02:27:33;;;;;;;6.72;4.70;;;2.30;78.50;;;;;;5049139;28;20105;-70
2021/05/08 02:29:59;;;;;;;5.10;4.43;;;2.30;78.60;;;;;;5049651;28;20396;-70
2021/05/08 02:32:24;;;;;;;6.68;4.97;;;2.30;78.60;;;;;;5031669;28;20116;-71
2021/05/08 02:34:50;;;;;;;7.80;4.82;;;2.30;78.70;;;;;;5048585;28;20508;-70
2021/05/08 02:37:16;;;;;;;5.35;4.47;;;2.30;78.80;;;;;;5049432;28;20025;-73
2021/05/08 02:39:41;;;;;;;7.10;4.60;;;2.30;78.70;;;;;;5049272;28;20029;-69
2021/05/08 02:42:07;;;;;;;4.80;4.13;;;2.30;78.70;;;;;;5032003;28;20091;-70
2021/05/08 02:44:33;;;;;;;5.47;4.32;;;2.30;78.80;;;;;;5045039;28;20044;-71
2021/05/08 02:46:58;;;;;;;5.85;4.40;;;2.20;78.70;;;;;;5049575;28;20032;-71
2021/05/08 02:49:24;;;;;;;5.53;4.47;;;2.20;78.80;;;;;;5045719;28;20025;-72
2021/05/08 02:51:50;;;;;;;6.82;4.45;;;2.20;78.80;;;;;;5046249;28;20059;-70
2021/05/08 02:54:15;;;;;;;5.10;4.50;;;2.20;78.90;;;;;;5030681;28;20059;-69
2021/05/08 02:56:41;;;;;;;5.80;4.72;;;2.20;78.90;;;;;;5049633;28;20112;-69
2021/05/08 02:59:06;;;;;;;5.72;4.50;;;2.20;78.90;;;;;;5048361;28;20355;-72
2021/05/08 03:01:32;;;;;;;6.15;4.70;;;2.20;79.10;;;;;;5031920;28;20020;-70
2021/05/08 03:03:57;;;;;;;6.78;4.63;;;2.10;79.00;;;;;;5030322;28;20021;-70
2021/05/08 03:06:23;;;;;;;5.38;4.45;;;2.10;79.00;;;;;;5031743;28;20098;-71
2021/05/08 03:08:48;;;;;;;8.43;4.32;;;2.10;79.00;;;;;;5030337;28;20026;-73
2021/05/08 03:11:14;;;;;;;6.40;4.70;;;2.00;78.90;;;;;;5031157;28;20041;-71
2021/05/08 03:13:40;;;;;;;7.63;5.10;;;2.10;79.10;;;;;;5048132;28;20064;-70
2021/05/08 03:16:06;;;;;;;7.53;5.32;;;2.00;79.10;;;;;;5048243;28;20504;-71
2021/05/08 03:18:31;;;;;;;7.30;4.75;;;2.10;79.10;;;;;;5050965;28;20041;-71
2021/05/08 03:20:57;;;;;;;6.40;5.13;;;2.10;79.40;;;;;;5045699;28;20029;-71
2021/05/08 03:23:23;;;;;;;5.72;4.97;;;2.10;79.20;;;;;;5043100;28;20481;-70
2021/05/08 03:25:48;;;;;;;6.95;5.05;;;2.10;79.20;;;;;;5052633;28;20052;-71
2021/05/08 03:28:14;;;;;;;6.93;5.60;;;2.10;79.30;;;;;;5052081;28;20090;-70
2021/05/08 03:30:39;;;;;;;7.55;5.63;;;2.00;79.40;;;;;;5034595;28;20035;-70
2021/05/08 03:33:05;;;;;;;5.35;4.70;;;2.10;79.70;;;;;;5034130;28;20032;-71
2021/05/08 03:35:31;;;;;;;6.63;5.32;;;2.10;79.60;;;;;;5050540;28;20017;-70
2021/05/08 03:37:56;;;;;;;9.00;4.72;;;2.10;79.60;;;;;;5038846;28;20090;-70
2021/05/08 03:40:23;;;;;;;6.05;5.00;;;2.10;79.60;;;;;;5033946;28;20017;-71
2021/05/08 03:42:48;;;;;;;6.10;4.95;;;2.10;79.60;;;;;;5083386;22;20040;-71
2021/05/08 03:45:14;;;;;;;6.20;4.75;;;2.10;79.60;;;;;;5064635;28;20075;-71
2021/05/08 03:47:40;;;;;;;9.13;5.20;;;2.20;79.70;;;;;;5060510;28;20021;-72
2021/05/08 03:50:06;;;;;;;6.65;5.30;;;2.20;79.60;;;;;;5069338;28;20083;-71
2021/05/08 03:52:32;;;;;;;8.55;5.30;;;2.20;79.70;;;;;;5071731;28;20028;-70
2021/05/08 03:54:58;;;;;;;5.88;4.70;;;2.10;79.40;;;;;;5055656;28;20025;-71
2021/05/08 03:57:24;;;;;;;6.00;4.70;;;2.20;79.70;;;;;;5053037;28;20387;-72
2021/05/08 03:59:49;;;;;;;6.07;4.80;;;2.10;79.70;;;;;;5054205;28;20028;-70
2021/05/08 04:02:15;;;;;;;7.47;4.80;;;2.10;79.70;;;;;;5054147;28;20056;-70
2021/05/08 04:04:41;;;;;;;6.22;4.32;;;2.10;79.70;;;;;;5070149;28;20025;-71
2021/05/08 04:07:06;;;;;;;6.43;4.78;;;2.10;79.90;;;;;;5070821;28;20103;-72
2021/05/08 04:09:32;;;;;;;6.07;4.80;;;2.20;79.90;;;;;;5072165;28;20102;-71
2021/05/08 04:11:58;;;;;;;8.40;5.18;;;2.20;79.80;;;;;;5051197;28;20025;-71
2021/05/08 04:14:23;;;;;;;5.50;4.47;;;2.20;79.80;;;;;;5067867;28;20032;-71
2021/05/08 04:16:49;;;;;;;4.93;4.40;;;2.20;80.30;;;;;;5071440;28;20431;-72
2021/05/08 04:19:14;;;;;;;5.15;4.53;;;2.10;79.80;;;;;;5053490;28;20095;-71
2021/05/08 04:21:40;;;;;;;6.40;4.47;;;2.10;79.80;;;;;;5053221;28;20484;-71
2021/05/08 04:24:06;;;;;;;5.45;4.55;;;2.20;80.00;;;;;;5070494;28;20357;-71
2021/05/08 04:26:31;;;;;;;5.93;4.78;;;2.20;80.10;;;;;;5071184;28;20025;-71
2021/05/08 04:28:57;;;;;;;4.90;4.40;;;2.30;80.10;;;;;;5070888;28;20022;-72
2021/05/08 04:31:23;;;;;;;6.38;5.00;;;2.30;80.10;;;;;;5068322;28;20051;-70
2021/05/08 04:33:48;;;;;;;5.03;4.55;;;2.30;80.10;;;;;;5071175;28;20063;-71
2021/05/08 04:36:14;;;;;;;7.38;4.85;;;2.30;80.10;;;;;;5069142;28;20022;-71
2021/05/08 04:38:40;;;;;;;5.25;4.47;;;2.40;80.30;;;;;;5071308;28;20508;-71
2021/05/08 04:41:06;;;;;;;5.55;4.82;;;2.40;80.40;;;;;;5052135;28;20020;-72
2021/05/08 04:43:32;;;;;;;6.00;4.88;;;2.50;80.50;;;;;;5050304;28;20461;-71
2021/05/08 04:45:58;;;;;;;5.82;4.80;;;2.50;80.50;;;;;;5051678;28;20028;-72
2021/05/08 04:48:25;;;;;;;4.97;4.47;;;2.60;80.50;;;;;;5070672;28;20066;-72
2021/05/08 04:50:52;;;;;;;5.70;4.97;;;2.70;80.30;;;;;;5052519;28;20047;-71
2021/05/08 04:53:18;;;;;;;5.30;4.72;;;2.80;80.40;;;;;;5062539;28;20027;-72
2021/05/08 04:55:46;;;;;;;7.22;4.65;;;2.90;80.40;;;;;;5068444;28;20107;-72
2021/05/08 04:58:12;;;;;;;5.70;4.55;;;3.00;80.40;;;;;;5052753;28;20063;-72
2021/05/08 05:00:37;;;;;;;5.30;4.60;;;3.10;80.40;;;;;;5064290;28;20052;-71
2021/05/08 05:03:03;;;;;;;6.25;4.10;;;3.20;80.40;;;;;;5071136;28;20021;-71
2021/05/08 05:05:29;;;;;;;4.85;4.10;;;3.30;80.50;;;;;;5069741;28;20032;-71
2021/05/08 05:07:54;;;;;;;4.65;4.03;;;3.50;80.40;;;;;;5051715;28;20028;-72
2021/05/08 05:10:20;;;;;;;5.68;4.15;;;3.50;80.40;;;;;;5070859;28;20020;-71
2021/05/08 05:12:46;;;;;;;4.82;3.95;;;3.60;80.30;;;;;;5069993;28;20159;-71
2021/05/08 05:15:12;;;;;;;7.05;4.35;;;3.70;80.30;;;;;;5051018;28;20040;-70
2021/05/08 05:17:38;;;;;;;5.30;4.38;;;3.70;80.20;;;;;;5069972;28;20028;-72
2021/05/08 05:20:04;;;;;;;4.90;4.22;;;3.80;80.10;;;;;;5068295;28;20024;-71
2021/05/08 05:22:30;;;;;;;4.90;4.30;;;3.90;80.10;;;;;;5068738;28;20024;-71
2021/05/08 05:24:55;;;;;;;5.47;4.18;;;4.00;80.10;;;;;;5069289;28;20123;-71
2021/05/08 05:27:21;;;;;;;5.53;4.55;;;4.20;80.10;;;;;;5068443;28;20029;-71
2021/05/08 05:29:47;;;;;;;6.57;4.50;;;4.30;79.90;;;;;;5070472;28;20401;-71
2021/05/08 05:32:12;;;;;;;7.60;4.50;;;4.40;79.80;;;;;;5045762;28;20031;-71
2021/05/08 05:34:38;;;;;;;5.13;4.63;;;4.50;79.80;;;;;;5046904;28;20017;-72
2021/05/08 05:37:03;;;;;;;4.97;4.20;;;4.60;79.80;;;;;;5068714;28;20708;-71
2021/05/08 05:39:29;;;;;;;4.30;3.90;;;4.70;79.80;;;;;;5070686;28;20017;-71
2021/05/08 05:41:55;;;;;;;6.82;4.47;;;4.90;79.80;;;;;;5069608;28;20746;-71
2021/05/08 05:44:20;;;;;;;4.97;4.15;;;5.00;79.80;;;;;;5067751;28;20399;-71
2021/05/08 05:46:46;;;;;;;5.03;4.43;;;5.10;79.70;;;;;;5052397;28;20020;-72
2021/05/08 05:49:11;;;;;;;4.57;4.18;;;5.20;79.60;;;;;;5070312;28;20032;-72
2021/05/08 05:51:37;;;;;;;4.95;4.45;;;5.30;79.40;;;;;;5068990;28;20049;-72
2021/05/08 05:54:03;;;;;;;4.70;4.25;;;5.40;79.40;;;;;;5051027;28;20032;-71
2021/05/08 05:56:29;;;;;;;5.55;4.47;;;5.50;79.20;;;;;;5069930;28;20029;-71
2021/05/08 05:58:54;;;;;;;5.30;4.38;;;5.60;78.80;;;;;;5070258;28;20074;-72
2021/05/08 06:01:20;;;;;;;5.28;4.32;;;5.60;78.40;;;;;;5069279;28;20020;-72
2021/05/08 06:03:47;;;;;;;4.63;4.22;;;5.70;78.40;;;;;;5070499;28;20032;-69
2021/05/08 06:06:12;;;;;;;8.52;4.97;;;5.80;78.50;;;;;;5068228;28;20029;-72
2021/05/08 06:08:38;;;;;;;5.95;4.57;;;5.90;78.70;;;;;;5069475;28;20442;-72
2021/05/08 06:11:04;;;;;;;8.13;5.00;;;6.00;78.40;;;;;;5068781;28;20529;-71
2021/05/08 06:13:32;;;;;;;6.35;5.20;;;6.10;78.30;;;;;;5065309;28;20032;-67
2021/05/08 06:15:58;;;;;;;6.15;4.75;;;6.20;77.80;;;;;;5068368;28;20443;-72
2021/05/08 06:18:24;;;;;;;5.38;4.53;;;6.20;77.50;;;;;;5067794;28;20056;-72
2021/05/08 06:20:49;;;;;;;7.75;4.88;;;6.30;77.30;;;;;;5070323;28;20056;-72
2021/05/08 06:23:15;;;;;;;7.15;4.88;;;6.40;77.10;;;;;;5063868;28;20060;-73
2021/05/08 06:25:40;;;;;;;7.03;5.40;;;6.50;77.10;;;;;;5049381;28;20037;-73
2021/05/08 06:28:06;;;;;;;5.68;4.75;;;6.60;77.70;;;;;;5062957;28;20028;-72
2021/05/08 06:30:32;;;;;;;6.70;5.40;;;6.90;77.30;;;;;;5049544;28;20082;-72
2021/05/08 06:32:57;;;;;;;6.25;5.25;;;7.10;77.10;;;;;;5070274;28;20028;-72
2021/05/08 06:35:23;;;;;;;6.50;5.13;;;7.40;76.60;;;;;;5068526;28;20032;-74
2021/05/08 06:37:50;;;;;;;5.68;4.63;;;7.70;76.40;;;;;;5056039;28;20380;-72
2021/05/08 06:40:15;;;;;;;5.60;4.55;;;7.90;76.00;;;;;;5069781;28;20710;-72
2021/05/08 06:42:41;;;;;;;6.38;4.78;;;8.20;75.80;;;;;;5068411;28;20033;-76
2021/05/08 06:45:07;;;;;;;4.78;4.13;;;8.50;75.60;;;;;;5068598;28;20389;-72
2021/05/08 06:47:33;;;;;;;5.30;4.35;;;8.80;75.10;;;;;;5077507;28;20482;-72
2021/05/08 06:49:58;;;;;;;5.00;4.45;;;9.10;74.20;;;;;;5067779;28;20067;-72
2021/05/08 06:52:24;;;;;;;7.38;4.70;;;9.40;73.80;;;;;;5068393;28;20025;-72
2021/05/08 06:54:50;;;;;;;6.13;4.38;;;9.60;74.10;;;;;;5071287;28;20062;-74
2021/05/08 06:57:15;;;;;;;5.07;4.35;;;10.00;73.90;;;;;;5071506;28;20071;-72
2021/05/08 06:59:41;;;;;;;5.07;4.18;;;10.50;72.90;;;;;;5072565;28;20029;-74
2021/05/08 07:02:07;;;;;;;4.55;4.13;;;10.80;72.10;;;;;;5071874;28;20109;-73
2021/05/08 07:04:33;;;;;;;5.22;3.70;;;11.10;71.60;;;;;;5069873;28;20090;-72
2021/05/08 07:06:58;;;;;;;6.97;3.60;;;11.40;71.40;;;;;;5072119;28;20496;-73
2021/05/08 07:09:24;;;;;;;4.00;3.60;;;11.70;70.10;;;;;;5073409;28;20098;-73
2021/05/08 07:11:50;;;;;;;3.78;3.33;;;12.00;69.50;;;;;;5070767;28;20028;-72
2021/05/08 07:14:16;;;;;;;6.72;3.67;;;12.30;70.00;;;;;;5072053;28;20032;-72
2021/05/08 07:16:41;;;;;;;3.85;3.40;;;12.60;69.10;;;;;;5054545;28;20025;-72
2021/05/08 07:19:07;;;;;;;3.90;3.50;;;13.20;69.10;;;;;;5069679;28;20025;-72
2021/05/08 07:21:32;;;;;;;3.47;3.10;;;13.80;67.70;;;;;;5054749;28;20047;-74
2021/05/08 07:23:58;;;;;;;3.22;2.92;;;14.00;65.90;;;;;;5071738;28;20035;-73
2021/05/08 07:26:23;;;;;;;3.85;3.25;;;14.30;65.90;;;;;;5054186;28;20396;-73
2021/05/08 07:28:49;;;;;;;3.35;3.05;;;14.70;65.90;;;;;;5047858;28;20802;-73
2021/05/08 07:31:14;;;;;;;3.35;2.97;;;15.30;65.20;;;;;;5071333;28;20035;-74
2021/05/08 07:33:40;;;;;;;3.40;3.10;;;15.80;64.30;;;;;;5071160;28;20119;-72
2021/05/08 07:36:06;;;;;;;5.35;2.95;;;16.30;63.80;;;;;;5070694;28;20048;-73
2021/05/08 07:38:33;;;;;;;3.28;2.97;;;16.70;61.50;;;;;;5050337;28;20078;-73
2021/05/08 07:40:58;;;;;;;3.50;2.53;;;17.00;61.60;;;;;;5071534;28;20074;-72
2021/05/08 07:43:24;;;;;;;2.72;2.10;;;17.50;60.90;;;;;;5070336;28;20503;-71
2021/05/08 07:45:50;;;;;;;2.88;2.33;;;18.10;60.10;;;;;;5070227;28;20029;-72
2021/05/08 07:48:16;;;;;;;3.65;2.22;;;18.60;58.30;;;;;;5071096;28;20077;-72
2021/05/08 07:50:42;;;;;;;3.17;2.30;;;18.80;56.10;;;;;;5069789;28;20109;-73
2021/05/08 07:53:08;;;;;;;2.58;1.92;;;19.00;55.90;;;;;;5072852;28;20032;-72
2021/05/08 07:55:34;;;;;;;3.38;2.20;;;19.40;55.30;;;;;;5071393;28;20056;-75
2021/05/08 07:58:02;;;;;;;1.92;1.83;;;19.70;53.70;;;;;;5072691;28;20461;-74
2021/05/08 08:00:27;;;;;;;3.35;1.98;;;19.60;53.50;;;;;;5072552;28;20031;-74
2021/05/08 08:02:53;;;;;;;1.73;1.58;;;19.90;53.70;;;;;;5072599;28;20392;-72
2021/05/08 08:05:19;;;;;;;1.73;1.55;;;20.20;52.60;;;;;;5052953;28;20024;-72
2021/05/08 08:07:45;;;;;;;2.15;1.30;;;20.40;51.60;;;;;;5072428;28;20048;-72
2021/05/08 08:10:11;;;;;;;1.60;1.50;;;20.60;49.90;;;;;;5071544;28;20035;-73
2021/05/08 08:12:38;;;;;;;2.75;1.30;;;20.60;49.70;;;;;;5063863;28;20394;-72
2021/05/08 08:15:05;;;;;;;1.88;1.17;;;20.80;49.10;;;;;;5068392;28;20025;-72
2021/05/08 08:17:32;;;;;;;2.45;1.20;;;21.20;48.90;;;;;;5072172;28;20020;-72
2021/05/08 08:19:58;;;;;;;3.28;1.30;;;21.40;48.60;;;;;;5054739;28;20025;-72
2021/05/08 08:22:23;;;;;;;2.35;1.35;;;21.70;48.50;;;;;;5072002;28;20443;-71
2021/05/08 08:24:49;;;;;;;1.45;1.25;;;22.00;47.70;;;;;;5070286;28;20048;-73
2021/05/08 08:27:14;;;;;;;1.25;1.00;;;22.40;46.50;;;;;;5071864;28;20029;-76
2021/05/08 08:29:40;;;;;;;2.65;1.33;;;22.20;45.70;;;;;;5071457;28;20107;-71
2021/05/08 08:32:06;;;;;;;1.67;1.23;;;22.10;45.70;;;;;;5072139;28;20029;-72
2021/05/08 08:34:32;;;;;;;1.92;1.27;;;22.20;46.00;;;;;;5071023;28;20020;-72
2021/05/08 08:36:57;;;;;;;1.83;1.35;;;22.50;45.20;;;;;;5071721;28;20021;-72
2021/05/08 08:39:23;;;;;;;3.47;1.40;;;22.90;44.80;;;;;;5071682;28;20027;-72
2021/05/08 08:41:52;;;;;;;2.53;1.63;;;23.60;44.20;;;;;;5068064;28;20027;-74
2021/05/08 08:44:17;;;;;;;2.25;1.45;;;24.10;43.10;;;;;;5070793;28;20028;-72
2021/05/08 08:46:44;;;;;;;1.40;1.30;;;24.50;41.90;;;;;;5064511;28;20025;-76
2021/05/08 08:49:11;;;;;;;1.95;1.00;;;24.80;41.10;;;;;;5070884;28;20021;-73
2021/05/08 08:51:38;;;;;;;1.23;1.13;;;25.00;40.60;;;;;;5070979;28;20025;-72
2021/05/08 08:54:04;;;;;;;2.10;1.00;;;24.80;41.00;;;;;;5070669;28;20029;-73
2021/05/08 08:56:43;;;;;;;2.75;1.40;;;23.90;41.70;;;;;;5071730;28;20035;-75
2021/05/08 08:59:29;;;;;;;1.17;1.08;;;23.00;41.30;;;;;;5070076;28;20017;-72
2021/05/08 09:01:55;;;;;;;3.05;1.35;;;22.50;42.90;;;;;;5067153;28;20027;-75
2021/05/08 09:04:22;;;;;;;1.63;1.42;;;21.90;43.80;;;;;;5067952;28;20095;-71
2021/05/08 09:06:48;;;;;;;1.90;1.67;;;21.60;43.60;;;;;;5070126;28;20025;-72
2021/05/08 09:09:16;;;;;;;5.38;1.42;;;21.70;43.90;;;;;;5069105;28;20016;-73
2021/05/08 09:11:48;;;;;;;3.80;1.15;;;21.80;43.10;;;;;;5050777;28;20060;-71
2021/05/08 09:14:23;;;;;;;3.20;2.00;;;21.60;42.90;;;;;;5068298;28;20082;-71
2021/05/08 09:17:21;;;;;;;1.35;1.05;;;21.20;43.60;;;;;;5069520;28;20107;-71
2021/05/08 09:19:56;;;;;;;2.28;1.15;;;20.70;44.20;;;;;;5054272;28;20499;-72
2021/05/08 09:22:36;;;;;;;1.38;1.00;;;20.20;45.00;;;;;;5060673;28;20056;-72
2021/05/08 09:25:16;;;;;;;2.25;1.05;;;19.40;44.20;;;;;;5061264;28;20024;-71
2021/05/08 09:27:57;;;;;;;4.22;0.88;;;18.80;44.10;;;;;;5070313;28;20089;-71
2021/05/08 09:30:28;;;;;;;1.88;0.90;;;18.10;45.30;;;;;;5064952;28;20055;-72
2021/05/08 09:32:54;;;;;;;1.50;1.07;;;17.90;46.20;;;;;;5073760;28;20035;-71
2021/05/08 09:35:24;;;;;;;2.00;1.15;;;17.70;46.00;;;;;;5070021;28;20414;-71
2021/05/08 09:37:51;;;;;;;2.30;1.08;;;17.40;46.50;;;;;;5069603;28;20078;-72
2021/05/08 09:40:26;;;;;;;1.50;1.10;;;17.50;47.50;;;;;;5068280;28;20035;-73
2021/05/08 09:42:52;;;;;;;2.90;1.10;;;17.60;46.50;;;;;;5068310;28;20426;-72
2021/05/08 09:45:19;;;;;;;2.55;0.88;;;17.80;47.30;;;;;;5052270;28;20133;-73
2021/05/08 09:47:45;;;;;;;1.35;0.95;;;18.10;46.90;;;;;;5056228;28;20067;-73
2021/05/08 09:50:12;;;;;;;2.10;1.00;;;18.20;46.70;;;;;;5066619;28;20020;-72
2021/05/08 09:52:40;;;;;;;0.80;0.80;;;18.20;46.30;;;;;;5070339;28;20029;-73
2021/05/08 09:55:06;;;;;;;1.40;0.98;;;18.10;45.80;;;;;;5062705;28;20025;-72
2021/05/08 09:57:32;;;;;;;3.47;2.22;;;18.00;45.80;;;;;;5068309;28;20024;-73
2021/05/08 09:59:58;;;;;;;1.17;0.95;;;18.00;46.50;;;;;;5065995;28;20036;-73
2021/05/08 10:02:23;;;;;;;1.10;1.00;;;18.10;46.30;;;;;;5069588;28;20544;-72
2021/05/08 10:04:54;;;;;;;1.33;1.08;;;18.10;46.20;;;;;;5066801;28;20036;-72
2021/05/08 10:07:21;;;;;;;3.08;1.10;;;18.00;45.90;;;;;;5068123;28;20384;-71
2021/05/08 10:09:50;;;;;;;2.45;0.95;;;17.90;46.10;;;;;;5066380;28;20043;-70
2021/05/08 10:12:23;;;;;;;1.42;1.00;;;17.80;46.10;;;;;;5067193;28;20028;-71
2021/05/08 10:14:51;;;;;;;1.90;1.00;;;17.70;45.90;;;;;;5067477;28;20027;-70
2021/05/08 10:17:21;;;;;;;1.52;1.00;;;17.60;45.90;;;;;;5065402;28;20032;-69
2021/05/08 10:19:49;;;;;;;2.42;1.00;;;17.50;45.20;;;;;;5066475;28;20020;-69
2021/05/08 10:22:16;;;;;;;3.28;1.10;;;17.40;45.80;;;;;;5068540;28;20044;-69
2021/05/08 10:24:44;;;;;;;1.33;1.23;;;17.40;46.40;;;;;;5063832;28;20033;-69
2021/05/08 10:27:10;;;;;;;2.17;1.13;;;17.50;46.80;;;;;;5069962;28;20075;-69
2021/05/08 10:29:37;;;;;;;2.80;1.20;;;17.70;45.90;;;;;;5073213;28;20060;-69
2021/05/08 10:32:10;;;;;;;2.38;1.00;;;17.70;46.00;;;;;;5076678;28;20035;-69
2021/05/08 10:34:37;;;;;;;1.70;0.90;;;17.90;46.10;;;;;;5069985;28;20052;-68
2021/05/08 10:37:13;;;;;;;3.15;1.30;;;18.10;46.20;;;;;;5072964;28;20043;-68
2021/05/08 10:39:47;;;;;;;1.33;1.15;;;18.20;45.50;;;;;;5073379;28;20024;-68
2021/05/08 10:42:29;;;;;;;1.80;1.20;;;18.40;45.20;;;;;;5073242;28;20074;-74
2021/05/08 10:44:55;;;;;;;4.93;1.38;;;18.60;44.80;;;;;;5066027;28;20024;-67
2021/05/08 10:47:20;;;;;;;1.52;0.80;;;18.60;45.50;;;;;;5064324;28;20025;-68
2021/05/08 10:50:25;;;;;;;0.98;0.90;;;18.70;45.70;;;;;;5072700;28;20404;-68
2021/05/08 10:53:03;;;;;;;1.27;0.80;;;18.60;44.80;;;;;;5054881;28;20549;-67
2021/05/08 10:55:30;;;;;;;2.72;1.00;;;18.60;44.50;;;;;;5071524;28;20025;-66
2021/05/08 10:58:14;;;;;;;1.65;1.15;;;18.50;45.70;;;;;;5073116;28;20021;-69
2021/05/08 11:00:52;;;;;;;1.20;0.98;;;18.40;46.90;;;;;;5054240;28;20025;-68
2021/05/08 11:03:22;;;;;;;1.13;1.02;;;18.40;47.30;;;;;;5072764;28;20016;-69
2021/05/08 11:05:52;;;;;;;1.95;1.13;;;18.30;47.50;;;;;;5070885;28;20550;-69
2021/05/08 11:08:27;;;;;;;0.90;0.90;;;18.30;48.20;;;;;;5072012;28;20024;-70
2021/05/08 11:10:55;;;;;;;1.90;1.00;;;18.40;48.30;;;;;;5072677;28;20021;-68
2021/05/08 11:13:22;;;;;;;1.20;1.10;;;18.40;48.20;;;;;;5071091;28;20032;-69
2021/05/08 11:15:53;;;;;;;1.30;0.90;;;18.40;47.80;;;;;;5072340;28;20031;-69
2021/05/08 11:18:34;;;;;;;2.78;1.00;;;18.40;48.10;;;;;;5073278;28;20070;-68
2021/05/08 11:21:23;;;;;;;1.77;0.95;;;18.30;47.90;;;;;;5062764;28;20109;-69
2021/05/08 11:23:48;;;;;;;4.25;1.30;;;18.20;48.00;;;;;;5047169;28;20033;-70
2021/05/08 11:26:24;;;;;;;1.63;1.17;;;18.20;48.20;;;;;;5072649;28;20039;-69
2021/05/08 11:29:00;;;;;;;1.02;0.93;;;18.20;46.90;;;;;;5072817;28;20027;-68
2021/05/08 11:31:31;;;;;;;1.38;0.93;;;18.10;47.20;;;;;;5072590;28;20159;-69
2021/05/08 11:34:15;;;;;;;3.58;1.10;;;18.20;47.70;;;;;;5071929;28;20059;-69
2021/05/08 11:36:50;;;;;;;1.10;1.00;;;18.30;47.00;;;;;;5063136;28;20155;-70
2021/05/08 11:39:17;;;;;;;2.45;1.20;;;18.40;47.70;;;;;;5066921;28;20546;-69
2021/05/08 11:41:44;;;;;;;2.90;0.80;;;18.50;47.50;;;;;;5072928;28;20121;-69
2021/05/08 11:44:21;;;;;;;4.88;1.20;;;18.50;47.20;;;;;;5071525;28;20021;-68
2021/05/08 11:47:29;;;;;;;1.40;1.15;;;18.60;46.50;;;;;;5072545;28;20025;-69
2021/05/08 11:50:13;;;;;;;0.88;0.88;;;18.70;46.40;;;;;;5071125;28;20111;-69
2021/05/08 11:52:44;;;;;;;2.67;1.00;;;18.70;46.50;;;;;;5070952;28;20039;-69
2021/05/08 11:55:23;;;;;;;1.40;0.90;;;18.70;46.10;;;;;;5071770;28;20077;-69
2021/05/08 11:57:52;;;;;;;2.17;1.30;;;18.70;46.10;;;;;;5071014;28;20087;-69
2021/05/08 12:00:20;;;;;;;2.20;1.10;;;18.80;46.50;;;;;;5072380;28;20419;-70
2021/05/08 12:02:46;;;;;;;1.05;0.82;;;18.80;46.00;;;;;;5071446;28;20507;-69
2021/05/08 12:05:12;;;;;;;1.10;0.88;;;18.70;46.50;;;;;;5070366;28;20036;-69
2021/05/08 12:07:43;;;;;;;2.80;1.00;;;18.70;47.20;;;;;;5053313;28;20029;-69
2021/05/08 12:10:20;;;;;;;1.67;0.93;;;18.80;47.00;;;;;;5072926;28;20031;-69
2021/05/08 12:12:55;;;;;;;1.73;0.80;;;19.00;46.20;;;;;;5071513;28;20024;-69
2021/05/08 12:15:23;;;;;;;1.83;0.82;;;19.00;46.20;;;;;;5071088;28;20056;-69
2021/05/08 12:17:51;;;;;;;2.30;0.90;;;19.10;46.60;;;;;;5054295;28;20021;-69
2021/05/08 12:20:19;;;;;;;1.77;1.10;;;19.20;46.30;;;;;;5071018;28;20085;-69
2021/05/08 12:22:45;;;;;;;2.22;0.82;;;19.30;46.10;;;;;;5054996;28;20120;-69
2021/05/08 12:25:20;;;;;;;3.78;0.82;;;19.30;46.50;;;;;;5061721;28;20028;-69
2021/05/08 12:27:46;;;;;;;2.80;0.77;;;19.50;45.80;;;;;;5071977;28;20024;-69
2021/05/08 12:30:12;;;;;;;1.60;0.85;;;19.50;45.50;;;;;;5067332;28;20033;-69
2021/05/08 12:32:51;;;;;;;1.17;0.90;;;19.50;45.50;;;;;;5051832;28;20049;-70
2021/05/08 12:35:19;;;;;;;1.35;0.80;;;19.50;45.20;;;;;;5060913;28;20024;-69
2021/05/08 12:37:45;;;;;;;2.03;0.80;;;19.50;45.10;;;;;;5071774;28;20128;-69
2021/05/08 12:40:11;;;;;;;0.60;0.60;;;19.30;45.20;;;;;;5054056;28;20161;-70
2021/05/08 12:42:40;;;;;;;1.30;0.88;;;19.30;44.60;;;;;;5068558;28;20111;-70
2021/05/08 12:45:06;;;;;;;1.77;0.80;;;19.20;44.50;;;;;;5066884;28;20060;-69
2021/05/08 12:47:38;;;;;;;3.75;0.95;;;19.10;44.90;;;;;;5069344;28;20052;-70
2021/05/08 12:50:04;;;;;;;;;;;19.10;44.10;;;;;;5064535;28;20381;-70
2021/05/08 12:52:29;;;;;;;1.25;0.80;;;19.00;45.90;;;;;;5070824;28;19921;-69
2021/05/08 12:54:55;;;;;;;3.70;0.80;;;19.00;45.50;;;;;;5067981;28;20036;-69
2021/05/08 12:57:26;;;;;;;2.17;0.90;;;19.00;45.30;;;;;;5071219;28;20135;-69